sensor_id;sensor_type;location;lat;lon;timestamp;temperature;humidity
14370;DHT22;7268;50.792;0.252;2023-07-16T00:00:14;16.20;99.90
14370;DHT22;7268;50.792;0.252;2023-07-16T00:02:42;16.20;99.90
14370;DHT22;7268;50.792;0.252;2023-07-16T00:05:09;16.20;99.90
14370;DHT22;7268;50.792;0.252;2023-07-16T00:07:36;16.20;99.90
14370;DHT22;7268;50.792;0.252;2023-07-16T00:10:03;16.30;99.90
14370;DHT22;7268;50.792;0.252;2023-07-16T00:12:30;16.30;99.90
14370;DHT22;7268;50.792;0.252;2023-07-16T00:14:57;16.30;99.90
14370;DHT22;7268;50.792;0.252;2023-07-16T00:17:24;16.30;99.90
14370;DHT22;7268;50.792;0.252;2023-07-16T00:19:51;16.30;99.90
14370;DHT22;7268;50.792;0.252;2023-07-16T00:22:18;16.20;99.90
14370;DHT22;7268;50.792;0.252;2023-07-16T00:24:46;16.30;99.90
14370;DHT22;7268;50.792;0.252;2023-07-16T00:27:13;16.20;99.90
14370;DHT22;7268;50.792;0.252;2023-07-16T00:29:40;16.20;99.90
14370;DHT22;7268;50.792;0.252;2023-07-16T00:32:07;16.20;99.90
14370;DHT22;7268;50.792;0.252;2023-07-16T00:34:34;16.20;99.90
14370;DHT22;7268;50.792;0.252;2023-07-16T00:37:00;16.20;99.90
14370;DHT22;7268;50.792;0.252;2023-07-16T00:39:29;16.20;99.90
14370;DHT22;7268;50.792;0.252;2023-07-16T00:41:57;16.20;99.90
14370;DHT22;7268;50.792;0.252;2023-07-16T00:44:23;16.20;99.90
14370;DHT22;7268;50.792;0.252;2023-07-16T00:46:51;16.20;99.90
14370;DHT22;7268;50.792;0.252;2023-07-16T00:49:19;16.20;99.90
14370;DHT22;7268;50.792;0.252;2023-07-16T00:51:46;16.20;99.90
14370;DHT22;7268;50.792;0.252;2023-07-16T00:54:13;16.10;99.90
14370;DHT22;7268;50.792;0.252;2023-07-16T00:56:40;16.10;99.90
14370;DHT22;7268;50.792;0.252;2023-07-16T00:59:07;16.10;99.90
14370;DHT22;7268;50.792;0.252;2023-07-16T01:01:36;16.10;99.90
14370;DHT22;7268;50.792;0.252;2023-07-16T01:04:04;16.10;99.90
14370;DHT22;7268;50.792;0.252;2023-07-16T01:06:35;16.10;99.90
14370;DHT22;7268;50.792;0.252;2023-07-16T01:09:13;16.10;99.90
14370;DHT22;7268;50.792;0.252;2023-07-16T01:11:42;16.20;99.90
14370;DHT22;7268;50.792;0.252;2023-07-16T01:14:10;16.20;99.90
14370;DHT22;7268;50.792;0.252;2023-07-16T01:16:40;16.20;99.90
14370;DHT22;7268;50.792;0.252;2023-07-16T01:19:07;16.10;99.90
14370;DHT22;7268;50.792;0.252;2023-07-16T01:30:20;16.10;99.90
14370;DHT22;7268;50.792;0.252;2023-07-16T01:32:48;16.10;99.90
14370;DHT22;7268;50.792;0.252;2023-07-16T01:35:16;16.10;99.90
14370;DHT22;7268;50.792;0.252;2023-07-16T01:37:43;16.10;99.90
14370;DHT22;7268;50.792;0.252;2023-07-16T01:40:11;16.10;99.90
14370;DHT22;7268;50.792;0.252;2023-07-16T01:42:38;16.20;99.90
14370;DHT22;7268;50.792;0.252;2023-07-16T01:45:05;16.10;99.90
14370;DHT22;7268;50.792;0.252;2023-07-16T01:50:14;16.00;99.90
14370;DHT22;7268;50.792;0.252;2023-07-16T01:52:41;16.00;99.90
14370;DHT22;7268;50.792;0.252;2023-07-16T01:55:08;16.10;99.90
14370;DHT22;7268;50.792;0.252;2023-07-16T01:57:35;16.10;99.90
14370;DHT22;7268;50.792;0.252;2023-07-16T02:00:02;16.10;99.90
14370;DHT22;7268;50.792;0.252;2023-07-16T02:02:29;16.00;99.90
14370;DHT22;7268;50.792;0.252;2023-07-16T02:04:56;16.00;99.90
14370;DHT22;7268;50.792;0.252;2023-07-16T02:07:23;16.00;99.90
14370;DHT22;7268;50.792;0.252;2023-07-16T02:09:51;16.00;99.90
14370;DHT22;7268;50.792;0.252;2023-07-16T02:12:18;16.00;99.90
14370;DHT22;7268;50.792;0.252;2023-07-16T02:14:45;16.00;99.90
14370;DHT22;7268;50.792;0.252;2023-07-16T02:17:11;16.00;99.90
14370;DHT22;7268;50.792;0.252;2023-07-16T02:19:38;16.00;99.90
14370;DHT22;7268;50.792;0.252;2023-07-16T02:22:05;16.00;99.90
14370;DHT22;7268;50.792;0.252;2023-07-16T02:24:32;16.00;99.90
14370;DHT22;7268;50.792;0.252;2023-07-16T02:26:59;16.00;99.90
14370;DHT22;7268;50.792;0.252;2023-07-16T02:29:26;16.00;99.90
14370;DHT22;7268;50.792;0.252;2023-07-16T02:31:53;16.10;99.90
14370;DHT22;7268;50.792;0.252;2023-07-16T02:34:20;16.00;99.90
14370;DHT22;7268;50.792;0.252;2023-07-16T02:36:47;16.10;99.90
14370;DHT22;7268;50.792;0.252;2023-07-16T02:39:14;16.00;99.90
14370;DHT22;7268;50.792;0.252;2023-07-16T02:41:41;16.00;99.90
14370;DHT22;7268;50.792;0.252;2023-07-16T02:44:09;16.00;99.90
14370;DHT22;7268;50.792;0.252;2023-07-16T02:46:36;16.00;99.90
14370;DHT22;7268;50.792;0.252;2023-07-16T02:49:03;16.00;99.90
14370;DHT22;7268;50.792;0.252;2023-07-16T02:51:30;16.00;99.90
14370;DHT22;7268;50.792;0.252;2023-07-16T02:53:57;16.00;99.90
14370;DHT22;7268;50.792;0.252;2023-07-16T02:56:24;15.90;99.90
14370;DHT22;7268;50.792;0.252;2023-07-16T02:58:51;15.90;99.90
14370;DHT22;7268;50.792;0.252;2023-07-16T03:01:18;16.00;99.90
14370;DHT22;7268;50.792;0.252;2023-07-16T03:03:45;15.90;99.90
14370;DHT22;7268;50.792;0.252;2023-07-16T03:06:12;15.90;99.90
14370;DHT22;7268;50.792;0.252;2023-07-16T03:08:40;15.80;99.90
14370;DHT22;7268;50.792;0.252;2023-07-16T03:11:07;15.80;99.90
14370;DHT22;7268;50.792;0.252;2023-07-16T03:13:34;15.80;99.90
14370;DHT22;7268;50.792;0.252;2023-07-16T03:16:01;15.80;99.90
14370;DHT22;7268;50.792;0.252;2023-07-16T03:18:29;15.70;99.90
14370;DHT22;7268;50.792;0.252;2023-07-16T03:20:57;15.70;99.70
14370;DHT22;7268;50.792;0.252;2023-07-16T03:23:24;15.60;99.70
14370;DHT22;7268;50.792;0.252;2023-07-16T03:25:52;15.60;99.80
14370;DHT22;7268;50.792;0.252;2023-07-16T03:28:18;15.60;99.80
14370;DHT22;7268;50.792;0.252;2023-07-16T03:30:47;15.60;99.80
14370;DHT22;7268;50.792;0.252;2023-07-16T03:33:14;15.70;99.60
14370;DHT22;7268;50.792;0.252;2023-07-16T03:35:45;15.70;99.50
14370;DHT22;7268;50.792;0.252;2023-07-16T03:38:12;15.70;99.60
14370;DHT22;7268;50.792;0.252;2023-07-16T03:40:42;15.70;99.50
14370;DHT22;7268;50.792;0.252;2023-07-16T03:43:09;15.70;99.60
14370;DHT22;7268;50.792;0.252;2023-07-16T03:45:35;15.70;99.70
14370;DHT22;7268;50.792;0.252;2023-07-16T03:48:02;15.70;99.50
14370;DHT22;7268;50.792;0.252;2023-07-16T03:50:30;15.70;99.50
14370;DHT22;7268;50.792;0.252;2023-07-16T03:52:57;15.70;99.40
14370;DHT22;7268;50.792;0.252;2023-07-16T03:55:24;15.70;99.40
14370;DHT22;7268;50.792;0.252;2023-07-16T03:57:51;15.70;99.40
14370;DHT22;7268;50.792;0.252;2023-07-16T04:00:18;15.70;99.40
14370;DHT22;7268;50.792;0.252;2023-07-16T04:02:45;15.70;99.20
14370;DHT22;7268;50.792;0.252;2023-07-16T04:05:12;15.70;99.10
14370;DHT22;7268;50.792;0.252;2023-07-16T04:07:39;15.70;98.70
14370;DHT22;7268;50.792;0.252;2023-07-16T04:10:06;15.60;98.30
14370;DHT22;7268;50.792;0.252;2023-07-16T04:12:33;15.70;98.10
14370;DHT22;7268;50.792;0.252;2023-07-16T04:15:00;15.70;98.00
14370;DHT22;7268;50.792;0.252;2023-07-16T04:17:27;15.60;97.90
14370;DHT22;7268;50.792;0.252;2023-07-16T04:19:54;15.60;97.80
14370;DHT22;7268;50.792;0.252;2023-07-16T04:22:21;15.60;97.90
14370;DHT22;7268;50.792;0.252;2023-07-16T04:24:48;15.70;98.00
14370;DHT22;7268;50.792;0.252;2023-07-16T04:27:15;15.60;97.80
14370;DHT22;7268;50.792;0.252;2023-07-16T04:29:42;15.70;97.50
14370;DHT22;7268;50.792;0.252;2023-07-16T04:32:09;15.60;97.90
14370;DHT22;7268;50.792;0.252;2023-07-16T04:34:36;15.70;97.80
14370;DHT22;7268;50.792;0.252;2023-07-16T04:37:03;15.70;97.80
14370;DHT22;7268;50.792;0.252;2023-07-16T04:39:30;15.70;97.50
14370;DHT22;7268;50.792;0.252;2023-07-16T04:41:56;15.70;96.90
14370;DHT22;7268;50.792;0.252;2023-07-16T04:44:23;15.70;97.00
14370;DHT22;7268;50.792;0.252;2023-07-16T04:46:50;15.70;97.00
14370;DHT22;7268;50.792;0.252;2023-07-16T04:49:17;15.70;96.60
14370;DHT22;7268;50.792;0.252;2023-07-16T04:51:44;15.80;96.50
14370;DHT22;7268;50.792;0.252;2023-07-16T04:54:11;15.80;96.60
14370;DHT22;7268;50.792;0.252;2023-07-16T04:56:38;15.80;96.70
14370;DHT22;7268;50.792;0.252;2023-07-16T04:59:04;15.80;96.80
14370;DHT22;7268;50.792;0.252;2023-07-16T05:01:31;15.90;96.90
14370;DHT22;7268;50.792;0.252;2023-07-16T05:03:58;15.80;97.00
14370;DHT22;7268;50.792;0.252;2023-07-16T05:06:25;15.80;97.20
14370;DHT22;7268;50.792;0.252;2023-07-16T05:08:52;15.80;97.50
14370;DHT22;7268;50.792;0.252;2023-07-16T05:11:19;15.90;97.50
14370;DHT22;7268;50.792;0.252;2023-07-16T05:13:46;16.00;97.30
14370;DHT22;7268;50.792;0.252;2023-07-16T05:16:13;16.10;97.20
14370;DHT22;7268;50.792;0.252;2023-07-16T05:18:40;16.10;97.10
14370;DHT22;7268;50.792;0.252;2023-07-16T05:21:07;16.20;97.20
14370;DHT22;7268;50.792;0.252;2023-07-16T05:23:34;16.20;97.60
14370;DHT22;7268;50.792;0.252;2023-07-16T05:26:01;16.10;96.90
14370;DHT22;7268;50.792;0.252;2023-07-16T05:28:28;16.20;97.30
14370;DHT22;7268;50.792;0.252;2023-07-16T05:30:59;16.30;97.30
14370;DHT22;7268;50.792;0.252;2023-07-16T05:33:26;16.30;96.90
14370;DHT22;7268;50.792;0.252;2023-07-16T05:35:53;16.30;97.20
14370;DHT22;7268;50.792;0.252;2023-07-16T05:38:20;16.40;96.90
14370;DHT22;7268;50.792;0.252;2023-07-16T05:40:47;16.30;96.40
14370;DHT22;7268;50.792;0.252;2023-07-16T05:43:14;16.30;96.80
14370;DHT22;7268;50.792;0.252;2023-07-16T05:45:41;16.50;96.70
14370;DHT22;7268;50.792;0.252;2023-07-16T05:48:08;16.70;96.40
14370;DHT22;7268;50.792;0.252;2023-07-16T05:50:35;16.80;95.60
14370;DHT22;7268;50.792;0.252;2023-07-16T05:53:02;17.00;95.70
14370;DHT22;7268;50.792;0.252;2023-07-16T05:55:29;17.00;95.40
14370;DHT22;7268;50.792;0.252;2023-07-16T05:57:56;17.20;95.60
14370;DHT22;7268;50.792;0.252;2023-07-16T06:00:23;17.30;94.70
14370;DHT22;7268;50.792;0.252;2023-07-16T06:02:50;17.20;94.90
14370;DHT22;7268;50.792;0.252;2023-07-16T06:05:18;17.60;94.90
14370;DHT22;7268;50.792;0.252;2023-07-16T06:07:44;18.50;92.70
14370;DHT22;7268;50.792;0.252;2023-07-16T06:10:11;18.50;92.30
14370;DHT22;7268;50.792;0.252;2023-07-16T06:12:39;18.80;92.30
14370;DHT22;7268;50.792;0.252;2023-07-16T06:15:06;18.40;92.70
14370;DHT22;7268;50.792;0.252;2023-07-16T06:17:33;18.50;93.00
14370;DHT22;7268;50.792;0.252;2023-07-16T06:20:01;18.60;92.60
14370;DHT22;7268;50.792;0.252;2023-07-16T06:22:28;18.80;91.80
14370;DHT22;7268;50.792;0.252;2023-07-16T06:24:55;18.90;91.80
14370;DHT22;7268;50.792;0.252;2023-07-16T06:27:22;18.60;92.10
14370;DHT22;7268;50.792;0.252;2023-07-16T06:29:49;18.50;91.90
14370;DHT22;7268;50.792;0.252;2023-07-16T06:32:16;18.30;92.40
14370;DHT22;7268;50.792;0.252;2023-07-16T06:34:43;18.60;91.80
14370;DHT22;7268;50.792;0.252;2023-07-16T06:37:09;18.50;91.70
14370;DHT22;7268;50.792;0.252;2023-07-16T06:39:36;19.10;90.90
14370;DHT22;7268;50.792;0.252;2023-07-16T06:42:03;19.30;90.20
14370;DHT22;7268;50.792;0.252;2023-07-16T06:44:32;19.20;91.30
14370;DHT22;7268;50.792;0.252;2023-07-16T06:46:59;20.30;88.90
14370;DHT22;7268;50.792;0.252;2023-07-16T06:49:26;20.00;88.80
14370;DHT22;7268;50.792;0.252;2023-07-16T06:51:53;19.70;90.40
14370;DHT22;7268;50.792;0.252;2023-07-16T06:54:20;20.00;89.40
14370;DHT22;7268;50.792;0.252;2023-07-16T06:56:47;20.50;86.70
14370;DHT22;7268;50.792;0.252;2023-07-16T06:59:14;19.80;88.20
14370;DHT22;7268;50.792;0.252;2023-07-16T07:01:40;20.60;86.80
14370;DHT22;7268;50.792;0.252;2023-07-16T07:04:07;21.90;81.00
14370;DHT22;7268;50.792;0.252;2023-07-16T07:06:34;22.10;79.70
14370;DHT22;7268;50.792;0.252;2023-07-16T07:09:01;21.50;81.90
14370;DHT22;7268;50.792;0.252;2023-07-16T07:11:28;20.60;86.40
14370;DHT22;7268;50.792;0.252;2023-07-16T07:13:55;20.70;86.50
14370;DHT22;7268;50.792;0.252;2023-07-16T07:16:24;21.70;84.20
14370;DHT22;7268;50.792;0.252;2023-07-16T07:18:50;21.80;81.70
14370;DHT22;7268;50.792;0.252;2023-07-16T07:21:17;21.50;81.90
14370;DHT22;7268;50.792;0.252;2023-07-16T07:23:44;21.10;84.70
14370;DHT22;7268;50.792;0.252;2023-07-16T07:26:11;21.70;82.90
14370;DHT22;7268;50.792;0.252;2023-07-16T07:28:38;21.20;82.70
14370;DHT22;7268;50.792;0.252;2023-07-16T07:31:05;20.70;85.30
14370;DHT22;7268;50.792;0.252;2023-07-16T07:33:32;21.20;84.10
14370;DHT22;7268;50.792;0.252;2023-07-16T07:35:59;22.60;79.80
14370;DHT22;7268;50.792;0.252;2023-07-16T07:38:26;22.40;79.50
14370;DHT22;7268;50.792;0.252;2023-07-16T07:40:53;22.50;79.10
14370;DHT22;7268;50.792;0.252;2023-07-16T07:43:20;21.80;80.00
14370;DHT22;7268;50.792;0.252;2023-07-16T07:45:47;22.50;78.70
14370;DHT22;7268;50.792;0.252;2023-07-16T07:48:14;21.70;80.80
14370;DHT22;7268;50.792;0.252;2023-07-16T07:50:41;21.40;83.60
14370;DHT22;7268;50.792;0.252;2023-07-16T07:53:07;21.80;81.70
14370;DHT22;7268;50.792;0.252;2023-07-16T07:55:35;21.50;82.70
14370;DHT22;7268;50.792;0.252;2023-07-16T07:58:04;21.50;82.90
14370;DHT22;7268;50.792;0.252;2023-07-16T08:00:31;20.80;84.60
14370;DHT22;7268;50.792;0.252;2023-07-16T08:02:58;21.20;83.70
14370;DHT22;7268;50.792;0.252;2023-07-16T08:05:25;21.80;82.40
14370;DHT22;7268;50.792;0.252;2023-07-16T08:07:52;21.90;82.00
14370;DHT22;7268;50.792;0.252;2023-07-16T08:10:20;21.60;82.40
14370;DHT22;7268;50.792;0.252;2023-07-16T08:12:47;21.80;82.10
14370;DHT22;7268;50.792;0.252;2023-07-16T08:15:14;22.80;79.20
14370;DHT22;7268;50.792;0.252;2023-07-16T08:17:42;22.50;78.60
14370;DHT22;7268;50.792;0.252;2023-07-16T08:20:11;22.90;77.10
14370;DHT22;7268;50.792;0.252;2023-07-16T08:22:38;23.00;78.20
14370;DHT22;7268;50.792;0.252;2023-07-16T08:25:06;22.80;78.00
14370;DHT22;7268;50.792;0.252;2023-07-16T08:27:34;23.90;75.60
14370;DHT22;7268;50.792;0.252;2023-07-16T08:30:01;23.00;77.40
14370;DHT22;7268;50.792;0.252;2023-07-16T08:32:28;22.40;78.50
14370;DHT22;7268;50.792;0.252;2023-07-16T08:34:55;23.00;77.60
14370;DHT22;7268;50.792;0.252;2023-07-16T08:37:22;23.10;78.40
14370;DHT22;7268;50.792;0.252;2023-07-16T08:39:52;21.70;80.80
14370;DHT22;7268;50.792;0.252;2023-07-16T08:42:20;21.70;82.70
14370;DHT22;7268;50.792;0.252;2023-07-16T08:44:50;22.60;81.60
14370;DHT22;7268;50.792;0.252;2023-07-16T08:47:17;21.50;83.20
14370;DHT22;7268;50.792;0.252;2023-07-16T08:49:54;21.90;82.50
14370;DHT22;7268;50.792;0.252;2023-07-16T08:52:23;22.60;80.40
14370;DHT22;7268;50.792;0.252;2023-07-16T08:54:50;23.70;78.70
14370;DHT22;7268;50.792;0.252;2023-07-16T08:57:18;24.10;75.30
14370;DHT22;7268;50.792;0.252;2023-07-16T08:59:50;24.80;72.90
14370;DHT22;7268;50.792;0.252;2023-07-16T09:02:18;23.80;73.20
14370;DHT22;7268;50.792;0.252;2023-07-16T09:04:49;23.60;75.20
14370;DHT22;7268;50.792;0.252;2023-07-16T09:07:17;23.00;77.00
14370;DHT22;7268;50.792;0.252;2023-07-16T09:09:58;23.40;76.10
14370;DHT22;7268;50.792;0.252;2023-07-16T09:12:27;23.80;75.80
14370;DHT22;7268;50.792;0.252;2023-07-16T09:14:54;23.80;73.80
14370;DHT22;7268;50.792;0.252;2023-07-16T09:17:22;24.00;74.10
14370;DHT22;7268;50.792;0.252;2023-07-16T09:19:52;22.70;76.50
14370;DHT22;7268;50.792;0.252;2023-07-16T09:22:20;23.00;75.80
14370;DHT22;7268;50.792;0.252;2023-07-16T09:24:48;23.10;76.60
14370;DHT22;7268;50.792;0.252;2023-07-16T09:27:15;23.60;74.90
14370;DHT22;7268;50.792;0.252;2023-07-16T09:29:42;23.90;75.10
14370;DHT22;7268;50.792;0.252;2023-07-16T09:32:09;25.00;71.60
14370;DHT22;7268;50.792;0.252;2023-07-16T09:34:36;24.50;71.20
14370;DHT22;7268;50.792;0.252;2023-07-16T09:37:04;25.30;69.10
14370;DHT22;7268;50.792;0.252;2023-07-16T09:39:32;26.10;66.00
14370;DHT22;7268;50.792;0.252;2023-07-16T09:41:59;25.40;66.80
14370;DHT22;7268;50.792;0.252;2023-07-16T09:44:29;25.10;70.60
14370;DHT22;7268;50.792;0.252;2023-07-16T09:46:56;24.70;69.80
14370;DHT22;7268;50.792;0.252;2023-07-16T09:49:25;24.90;71.30
14370;DHT22;7268;50.792;0.252;2023-07-16T09:51:56;24.50;70.30
14370;DHT22;7268;50.792;0.252;2023-07-16T09:54:25;23.80;71.90
14370;DHT22;7268;50.792;0.252;2023-07-16T09:56:58;23.10;75.70
14370;DHT22;7268;50.792;0.252;2023-07-16T09:59:28;23.50;76.60
14370;DHT22;7268;50.792;0.252;2023-07-16T10:01:56;24.20;73.50
14370;DHT22;7268;50.792;0.252;2023-07-16T10:04:24;24.00;71.70
14370;DHT22;7268;50.792;0.252;2023-07-16T10:06:55;23.90;74.30
14370;DHT22;7268;50.792;0.252;2023-07-16T10:09:39;23.60;72.90
14370;DHT22;7268;50.792;0.252;2023-07-16T10:12:17;22.90;75.90
14370;DHT22;7268;50.792;0.252;2023-07-16T10:14:49;23.80;74.60
14370;DHT22;7268;50.792;0.252;2023-07-16T10:17:18;24.50;72.10
14370;DHT22;7268;50.792;0.252;2023-07-16T10:19:57;24.70;69.40
14370;DHT22;7268;50.792;0.252;2023-07-16T10:22:37;24.80;70.70
14370;DHT22;7268;50.792;0.252;2023-07-16T10:25:23;25.30;67.40
14370;DHT22;7268;50.792;0.252;2023-07-16T10:27:51;24.80;70.30
14370;DHT22;7268;50.792;0.252;2023-07-16T10:30:18;25.60;67.90
14370;DHT22;7268;50.792;0.252;2023-07-16T10:32:46;24.90;69.50
14370;DHT22;7268;50.792;0.252;2023-07-16T10:35:13;25.10;69.60
14370;DHT22;7268;50.792;0.252;2023-07-16T10:37:40;25.80;67.40
14370;DHT22;7268;50.792;0.252;2023-07-16T10:40:11;25.80;65.70
14370;DHT22;7268;50.792;0.252;2023-07-16T10:42:41;24.90;67.40
14370;DHT22;7268;50.792;0.252;2023-07-16T10:45:13;24.60;69.70
14370;DHT22;7268;50.792;0.252;2023-07-16T10:47:51;24.70;68.60
14370;DHT22;7268;50.792;0.252;2023-07-16T10:50:19;24.10;70.10
14370;DHT22;7268;50.792;0.252;2023-07-16T10:52:56;23.40;71.40
14370;DHT22;7268;50.792;0.252;2023-07-16T10:55:25;23.50;74.20
14370;DHT22;7268;50.792;0.252;2023-07-16T10:57:52;24.50;71.90
14370;DHT22;7268;50.792;0.252;2023-07-16T11:00:21;24.70;69.80
14370;DHT22;7268;50.792;0.252;2023-07-16T11:02:51;24.30;69.90
14370;DHT22;7268;50.792;0.252;2023-07-16T11:05:19;24.60;70.90
14370;DHT22;7268;50.792;0.252;2023-07-16T11:07:47;24.20;72.70
14370;DHT22;7268;50.792;0.252;2023-07-16T11:10:20;23.40;73.60
14370;DHT22;7268;50.792;0.252;2023-07-16T11:12:51;23.30;75.20
14370;DHT22;7268;50.792;0.252;2023-07-16T11:15:30;23.70;75.30
14370;DHT22;7268;50.792;0.252;2023-07-16T11:17:58;23.60;75.00
14370;DHT22;7268;50.792;0.252;2023-07-16T11:20:25;25.00;71.80
14370;DHT22;7268;50.792;0.252;2023-07-16T11:22:52;24.30;71.80
14370;DHT22;7268;50.792;0.252;2023-07-16T11:25:19;24.30;73.40
14370;DHT22;7268;50.792;0.252;2023-07-16T11:27:48;24.20;73.40
14370;DHT22;7268;50.792;0.252;2023-07-16T11:30:15;23.60;75.80
14370;DHT22;7268;50.792;0.252;2023-07-16T11:32:48;23.30;75.40
14370;DHT22;7268;50.792;0.252;2023-07-16T11:35:17;23.40;76.10
14370;DHT22;7268;50.792;0.252;2023-07-16T11:37:45;23.20;77.00
14370;DHT22;7268;50.792;0.252;2023-07-16T11:40:17;24.20;74.70
14370;DHT22;7268;50.792;0.252;2023-07-16T11:42:45;23.90;74.20
14370;DHT22;7268;50.792;0.252;2023-07-16T11:45:20;23.30;75.40
14370;DHT22;7268;50.792;0.252;2023-07-16T11:47:47;22.90;77.40
14370;DHT22;7268;50.792;0.252;2023-07-16T11:50:15;22.60;79.20
14370;DHT22;7268;50.792;0.252;2023-07-16T11:52:42;22.90;77.70
14370;DHT22;7268;50.792;0.252;2023-07-16T11:55:09;23.00;78.40
14370;DHT22;7268;50.792;0.252;2023-07-16T11:57:36;23.90;74.20
14370;DHT22;7268;50.792;0.252;2023-07-16T12:00:03;24.20;73.80
14370;DHT22;7268;50.792;0.252;2023-07-16T12:02:30;23.50;73.60
14370;DHT22;7268;50.792;0.252;2023-07-16T12:04:57;23.40;74.60
14370;DHT22;7268;50.792;0.252;2023-07-16T12:07:37;23.80;73.60
14370;DHT22;7268;50.792;0.252;2023-07-16T12:10:06;22.80;75.30
14370;DHT22;7268;50.792;0.252;2023-07-16T12:12:34;22.70;77.50
14370;DHT22;7268;50.792;0.252;2023-07-16T12:15:06;21.70;80.20
14370;DHT22;7268;50.792;0.252;2023-07-16T12:17:33;21.00;83.60
14370;DHT22;7268;50.792;0.252;2023-07-16T12:20:01;21.50;83.50
14370;DHT22;7268;50.792;0.252;2023-07-16T12:22:28;21.60;80.70
14370;DHT22;7268;50.792;0.252;2023-07-16T12:24:55;22.10;81.60
14370;DHT22;7268;50.792;0.252;2023-07-16T12:27:22;22.60;79.30
14370;DHT22;7268;50.792;0.252;2023-07-16T12:29:49;21.50;81.30
14370;DHT22;7268;50.792;0.252;2023-07-16T12:32:16;21.50;84.30
14370;DHT22;7268;50.792;0.252;2023-07-16T12:34:43;21.50;83.60
14370;DHT22;7268;50.792;0.252;2023-07-16T12:37:11;21.80;84.00
14370;DHT22;7268;50.792;0.252;2023-07-16T12:39:38;21.40;84.20
14370;DHT22;7268;50.792;0.252;2023-07-16T12:42:05;21.80;84.80
14370;DHT22;7268;50.792;0.252;2023-07-16T12:44:32;22.40;83.00
14370;DHT22;7268;50.792;0.252;2023-07-16T12:46:59;22.70;82.30
14370;DHT22;7268;50.792;0.252;2023-07-16T12:49:26;22.90;81.10
14370;DHT22;7268;50.792;0.252;2023-07-16T12:51:53;23.30;78.40
14370;DHT22;7268;50.792;0.252;2023-07-16T12:54:20;23.20;78.30
14370;DHT22;7268;50.792;0.252;2023-07-16T12:56:47;22.60;78.40
14370;DHT22;7268;50.792;0.252;2023-07-16T12:59:13;22.20;78.70
14370;DHT22;7268;50.792;0.252;2023-07-16T13:01:40;22.50;79.40
14370;DHT22;7268;50.792;0.252;2023-07-16T13:04:07;22.50;75.70
14370;DHT22;7268;50.792;0.252;2023-07-16T13:06:34;22.20;77.20
14370;DHT22;7268;50.792;0.252;2023-07-16T13:09:01;22.00;77.30
14370;DHT22;7268;50.792;0.252;2023-07-16T13:11:28;21.90;77.90
14370;DHT22;7268;50.792;0.252;2023-07-16T13:13:55;21.80;77.50
14370;DHT22;7268;50.792;0.252;2023-07-16T13:16:22;21.30;78.20
14370;DHT22;7268;50.792;0.252;2023-07-16T13:18:49;21.00;80.90
14370;DHT22;7268;50.792;0.252;2023-07-16T13:21:16;21.20;80.80
14370;DHT22;7268;50.792;0.252;2023-07-16T13:23:43;21.50;80.00
14370;DHT22;7268;50.792;0.252;2023-07-16T13:26:10;21.50;80.10
14370;DHT22;7268;50.792;0.252;2023-07-16T13:28:37;21.60;80.00
14370;DHT22;7268;50.792;0.252;2023-07-16T13:31:04;21.50;80.60
14370;DHT22;7268;50.792;0.252;2023-07-16T13:33:31;21.40;80.70
14370;DHT22;7268;50.792;0.252;2023-07-16T13:35:58;21.20;80.20
14370;DHT22;7268;50.792;0.252;2023-07-16T13:38:28;21.30;80.70
14370;DHT22;7268;50.792;0.252;2023-07-16T13:40:55;21.50;82.20
14370;DHT22;7268;50.792;0.252;2023-07-16T13:43:22;21.20;82.70
14370;DHT22;7268;50.792;0.252;2023-07-16T13:45:49;20.80;85.60
14370;DHT22;7268;50.792;0.252;2023-07-16T13:48:16;21.20;85.80
14370;DHT22;7268;50.792;0.252;2023-07-16T13:50:43;20.60;86.20
14370;DHT22;7268;50.792;0.252;2023-07-16T13:53:10;20.50;87.30
14370;DHT22;7268;50.792;0.252;2023-07-16T13:55:36;20.00;87.70
14370;DHT22;7268;50.792;0.252;2023-07-16T13:58:03;20.10;90.10
14370;DHT22;7268;50.792;0.252;2023-07-16T14:00:30;19.60;89.40
14370;DHT22;7268;50.792;0.252;2023-07-16T14:02:57;19.80;89.60
14370;DHT22;7268;50.792;0.252;2023-07-16T14:05:24;19.90;89.80
14370;DHT22;7268;50.792;0.252;2023-07-16T14:07:51;19.90;89.00
14370;DHT22;7268;50.792;0.252;2023-07-16T14:10:20;19.80;89.80
14370;DHT22;7268;50.792;0.252;2023-07-16T14:12:47;20.00;89.70
14370;DHT22;7268;50.792;0.252;2023-07-16T14:15:14;19.90;88.70
14370;DHT22;7268;50.792;0.252;2023-07-16T14:17:44;19.90;89.60
14370;DHT22;7268;50.792;0.252;2023-07-16T14:20:11;20.10;90.10
14370;DHT22;7268;50.792;0.252;2023-07-16T14:22:38;20.40;89.80
14370;DHT22;7268;50.792;0.252;2023-07-16T14:25:05;20.50;86.30
14370;DHT22;7268;50.792;0.252;2023-07-16T14:27:32;20.50;89.00
14370;DHT22;7268;50.792;0.252;2023-07-16T14:29:59;20.70;88.30
14370;DHT22;7268;50.792;0.252;2023-07-16T14:32:33;20.60;88.20
14370;DHT22;7268;50.792;0.252;2023-07-16T14:35:01;20.80;87.80
14370;DHT22;7268;50.792;0.252;2023-07-16T14:37:28;20.40;89.20
14370;DHT22;7268;50.792;0.252;2023-07-16T14:39:55;19.90;90.60
14370;DHT22;7268;50.792;0.252;2023-07-16T14:42:22;20.30;90.40
14370;DHT22;7268;50.792;0.252;2023-07-16T14:44:49;20.50;88.90
14370;DHT22;7268;50.792;0.252;2023-07-16T14:47:16;20.60;89.80
14370;DHT22;7268;50.792;0.252;2023-07-16T14:49:43;20.60;89.10
14370;DHT22;7268;50.792;0.252;2023-07-16T14:52:10;20.10;90.40
14370;DHT22;7268;50.792;0.252;2023-07-16T14:54:37;19.90;90.90
14370;DHT22;7268;50.792;0.252;2023-07-16T14:57:04;20.00;90.50
14370;DHT22;7268;50.792;0.252;2023-07-16T14:59:31;19.90;90.60
14370;DHT22;7268;50.792;0.252;2023-07-16T15:01:58;19.70;90.50
14370;DHT22;7268;50.792;0.252;2023-07-16T15:04:25;19.80;91.00
14370;DHT22;7268;50.792;0.252;2023-07-16T15:06:52;19.70;89.80
14370;DHT22;7268;50.792;0.252;2023-07-16T15:09:20;19.80;90.30
14370;DHT22;7268;50.792;0.252;2023-07-16T15:11:46;19.90;90.00
14370;DHT22;7268;50.792;0.252;2023-07-16T15:14:14;20.20;90.10
14370;DHT22;7268;50.792;0.252;2023-07-16T15:16:40;20.20;89.20
14370;DHT22;7268;50.792;0.252;2023-07-16T15:19:07;20.10;90.00
14370;DHT22;7268;50.792;0.252;2023-07-16T15:21:36;20.20;90.30
14370;DHT22;7268;50.792;0.252;2023-07-16T15:24:06;20.00;90.00
14370;DHT22;7268;50.792;0.252;2023-07-16T15:26:33;19.90;90.40
14370;DHT22;7268;50.792;0.252;2023-07-16T15:29:00;19.60;88.00
14370;DHT22;7268;50.792;0.252;2023-07-16T15:31:27;19.80;88.50
14370;DHT22;7268;50.792;0.252;2023-07-16T15:33:55;19.70;86.60
14370;DHT22;7268;50.792;0.252;2023-07-16T15:36:23;19.40;88.10
14370;DHT22;7268;50.792;0.252;2023-07-16T15:38:50;19.50;89.30
14370;DHT22;7268;50.792;0.252;2023-07-16T15:41:18;19.50;90.10
14370;DHT22;7268;50.792;0.252;2023-07-16T15:43:52;19.60;90.00
14370;DHT22;7268;50.792;0.252;2023-07-16T15:46:19;19.50;90.00
14370;DHT22;7268;50.792;0.252;2023-07-16T15:48:46;19.50;89.90
14370;DHT22;7268;50.792;0.252;2023-07-16T15:51:14;19.40;89.90
14370;DHT22;7268;50.792;0.252;2023-07-16T15:53:42;19.20;90.60
14370;DHT22;7268;50.792;0.252;2023-07-16T15:56:10;19.20;91.00
14370;DHT22;7268;50.792;0.252;2023-07-16T15:58:38;19.00;90.80